首页
METAR-TAF:

METAR-TAF

机场 :

扎黑丹機場

扎黑丹, 伊朗

纬度: 29-28N, 经度: 060-53E, 海拔: 1370米

当前天气观测

该预报发布于37分钟前的08:30 UTC
风速6节,风向
温度 27°C
湿度 14%
气压 1023 hPa
能见度10公里或以上
少量云层高于4000英尺

METAR: OIZH 170830Z 01006KT 9999 FEW040 27/M03 Q1023 A3021

时间: 12:37 (09:07 UTC)

预报

该预报发布于3小时和37分钟前的05:30 UTC
预报有效从17日的 06点(UTC)到 18日的 12点(UTC)
风速8节,风向北转东北
能見度: 8000
少量云层高于4000英尺
短暂存在
从 17日的 09点(UTC)到 17日的 15点(UTC)
风速16节,风向西转西北

TAF: OIZH 170530Z 1706/1812 02008KT 8000 FEW040 TEMPO 1709/1715 29016KT

超过4000个机场的气象观测和天气预报(METAR&TAF报告)。

可查询的气象台以黄色和红色小点在地图上表示。

将鼠标移到小点上方,可查看气象台名称。

然后点击查看天气观测和预报。

如需切换地图:点击带黑十字的绿色按钮放大地图;点击带横线的绿色按钮缩小地图;或者点击绿色箭头查看邻近地区的地图。


METAR-TAF: